Flight Track Log - Related Links

Times and Time Zones

All times are in EDT time to prevent confusion due to time zone crossing. See the ASQ5941 flight status page for this flight to view local times or setup timezone preferences in your user account.

Time Position Orientation Groundspeed Altitude Reporting Facility
EDT Latitude Longitude Course Direction KTS MPH feet Rate Location/Type
Sat 02:55:40 PM 42.0000 -87.9333 80° East 163 188 1,700  Level Chicago TRACON
Sat 02:56:40 PM 42.0500 -87.9000 26° Northeast 237 273 3,900 2,113 Climbing Chicago TRACON
Sat 02:58:00 PM 42.0451 -87.4211 83° East  Level FlightAware Approximate
Sat 02:58:19 PM 42.1297 -87.8036 42° Northeast 260 299 7,300  Level Chicago Center
Sat 02:59:00 PM 42.0668 -87.2577 78° East  Level FlightAware Approximate
Sat 02:59:21 PM 42.1514 -87.7011 74° East 292 336 9,300  Level Chicago Center
Sat 03:00:00 PM 42.0925 -87.0951 77° East  Level FlightAware Approximate
Sat 03:00:23 PM 42.1531 -87.5783 89° East 322 371 11,100  Level Chicago Center
Sat 03:01:00 PM 42.1087 -86.9309 80° East  Level FlightAware Approximate
Sat 03:01:25 PM 42.1428 -87.4244 95° East 346 398 13,300  Level Chicago Center
Sat 03:02:26 PM 42.1406 -87.2869 91° East 363 418 14,400 976 Climbing Chicago Center
Sat 03:03:28 PM 42.1464 -87.1389 87° East 391 450 15,300 919 Climbing Chicago Center
Sat 03:04:30 PM 42.1519 -86.9839 87° East 413 475 16,300 976 Climbing Chicago Center
Sat 03:05:31 PM 42.1575 -86.8264 87° East 422 486 17,300 976 Climbing Chicago Center
Sat 03:06:33 PM 42.1567 -86.6714 90° East 430 495 18,300 1,073 Climbing Chicago Center
Sat 03:07:34 PM 42.1581 -86.4722 89° East 440 506 19,500 1,073 Climbing Chicago Center
Sat 03:08:36 PM 42.1581 -86.3053 90° East 444 511 20,500 976 Climbing Chicago Center
Sat 03:09:37 PM 42.1586 -86.1353 90° East 452 520 21,500 976 Climbing Chicago Center
Sat 03:10:39 PM 42.1586 -85.9639 90° East 456 525 22,500 927 Climbing Chicago Center
Sat 03:11:40 PM 42.1583 -85.8097 90° East 453 521 23,400 1,024 Climbing Chicago Center
Sat 03:12:42 PM 42.1575 -85.6061 90° East 455 524 24,600 1,073 Climbing Chicago Center
Sat 03:13:43 PM 42.1556 -85.4358 91° East 457 526 25,600 976 Climbing Chicago Center
Sat 03:14:45 PM 42.1558 -85.2661 90° East 456 525 26,600 976 Climbing Chicago Center
Sat 03:15:46 PM 42.1553 -85.0944 90° East 461 531 27,600 927 Climbing Chicago Center
Sat 03:16:48 PM 42.1536 -84.9272 91° East 451 519 28,500 927 Climbing Chicago Center
Sat 03:17:49 PM 42.1519 -84.7597 91° East 446 513 29,500 878 Climbing Chicago Center
Sat 03:18:51 PM 42.1503 -84.5883 91° East 456 525 30,300 712 Climbing Chicago Center
Sat 03:19:47 PM 42.1447 -84.3950 92° East 452 520 30,900 569 Climbing Cleveland Center
Sat 03:20:47 PM 42.1425 -84.2100 91° East 478 550 31,400 500 Climbing Cleveland Center
Sat 03:21:47 PM 42.1397 -84.0278 91° East 488 562 31,900 500 Climbing Cleveland Center
Sat 03:22:47 PM 42.1369 -83.8342 91° East 499 574 32,400 600 Climbing Cleveland Center
Sat 03:23:47 PM 42.1317 -83.6436 92° East 504 580 33,100 750 Climbing Cleveland Center
Sat 03:24:47 PM 42.1283 -83.4531 91° East 504 580 33,900 650 Climbing Cleveland Center
Sat 03:25:47 PM 42.1242 -83.2792 92° East 509 586 34,400 500 Climbing Cleveland Center
Sat 03:26:47 PM 42.1181 -83.0886 92° East 509 586 34,900 300 Climbing Cleveland Center
Sat 03:27:47 PM 42.1139 -82.8925 92° East 517 595 35,000 50 Climbing Cleveland Center
Sat 03:28:47 PM 42.1053 -82.6961 93° East 522 601 35,000  Level Cleveland Center
Sat 03:29:47 PM 42.0981 -82.5000 93° East 522 601 35,000  Level Cleveland Center
Sat 03:30:47 PM 42.0992 -82.3014 90° East 522 601 35,000  Level Cleveland Center
Sat 03:31:47 PM 42.0878 -82.0883 94° East 522 601 35,000  Level Cleveland Center
Sat 03:32:47 PM 42.0817 -81.8925 92° East 522 601 35,000  Level Cleveland Center
Sat 03:33:47 PM 42.0756 -81.6908 92° East 522 601 35,000  Level Cleveland Center
Sat 03:34:47 PM 42.0669 -81.4922 93° East 531 611 35,000  Level Cleveland Center
Sat 03:35:47 PM 42.0578 -81.2906 93° East 536 617 35,000  Level Cleveland Center
Sat 03:36:47 PM 42.0506 -81.0950 93° East 536 617 35,000  Level Cleveland Center
Sat 03:37:47 PM 42.0408 -80.9158 94° East 536 617 35,000  Level Cleveland Center
Sat 03:38:47 PM 42.0328 -80.7200 93° East 536 617 35,000  Level Cleveland Center
Sat 03:39:47 PM 42.0244 -80.5161 93° East 531 611 35,000  Level Cleveland Center
Sat 03:40:47 PM 42.0158 -80.3206 93° East 531 611 35,000  Level Cleveland Center
Sat 03:41:47 PM 42.0050 -80.1222 94° East 537 618 35,000  Level Cleveland Center
Sat 03:42:47 PM 41.9933 -79.9072 94° East 532 612 35,000  Level Cleveland Center
Sat 03:43:47 PM 41.9836 -79.7061 94° East 532 612 35,000 -200 Level Cleveland Center
Sat 03:44:47 PM 41.9717 -79.5108 95° East 532 612 34,600 -550 Descending Cleveland Center
Sat 03:45:47 PM 41.9614 -79.3100 94° East 532 612 33,900 -750 Descending Cleveland Center
Sat 03:46:47 PM 41.9486 -79.1119 95° East 532 612 33,100 -450 Descending Cleveland Center
Sat 03:47:47 PM 41.9353 -78.9139 95° East 532 612 33,000 -267 Descending Cleveland Center
Sat 03:49:00 PM 41.9167 -78.7189 90° East  Level FlightAware Approximate
Sat 03:49:47 PM 41.9103 -78.5211 90° East 532 612 32,300  Level Cleveland Center
Sat 03:50:47 PM 41.8983 -78.3264 95° East 532 612 31,300 -1,000 Descending Cleveland Center
Sat 03:51:47 PM 41.8775 -78.1289 98° East 532 612 30,300 -938 Descending Cleveland Center
Sat 03:52:23 PM 41.8606 -78.0175 102° East 532 612 29,800 -1,579 Descending New York Center
Sat 03:53:22 PM 41.8328 -77.8222 101° East 525 604 27,800 -2,000 Descending New York Center
Sat 03:54:23 PM 41.8019 -77.6381 103° East 519 597 25,800 -1,934 Descending New York Center
Sat 03:55:23 PM 41.7731 -77.4517 102° East 514 592 23,900 -1,388 Descending New York Center
Sat 03:56:24 PM 41.7414 -77.2706 103° East 508 585 23,000 -1,008 Descending New York Center
Sat 03:57:22 PM 41.7119 -77.0842 102° East 508 585 21,900 -1,780 Descending New York Center
Sat 03:58:22 PM 41.6833 -76.9119 102° East 495 570 19,500 -2,479 Descending New York Center
Sat 03:59:23 PM 41.6583 -76.7486 102° East 480 552 16,900 -2,500 Descending New York Center
Sat 04:00:22 PM 41.6319 -76.6103 104° East 441 507 14,500 -2,773 Descending New York Center
Sat 04:01:22 PM 41.6064 -76.4500 102° East 404 465 11,400 -2,083 Descending New York Center
Sat 04:02:23 PM 41.5817 -76.3147 104° East 385 443 10,300 -992 Descending New York Center
Sat 04:03:23 PM 41.5619 -76.1967 103° East 341 392 9,400 -1,041 Descending New York Center
Sat 04:04:24 PM 41.5328 -76.1056 113° Southeast 303 349 8,200 -1,109 Descending New York Center
Sat 04:05:22 PM 41.4975 -76.0114 117° Southeast 288 331 7,200 -1,017 Descending New York Center
Sat 04:06:22 PM 41.4767 -75.9128 106° East 275 316 6,200 -1,050 Descending New York Center
Sat 04:07:22 PM 41.4597 -75.8256 105° East 263 303 5,100 -1,100 Descending New York Center

Login

Don't have an account? Register now (free) for customized features, flight alerts, and more!